Time;durP1;ratioP1;P1;durP2;ratioP2;P2;SDS_P1;SDS_P2;PMS_P1;PMS_P2;Temp;Humidity;BMP_temperature;BMP_pressure;BME280_temperature;BME280_humidity;BME280_pressure;Samples;Min_cycle;Max_cycle;Signal;HPM_P1;HPM_P2
2022/08/24 00:00:39;;;;;;;25.55;12.95;;;;;;;19.25;89.79;99036.97;4980760;28;20061;-90
2022/08/24 00:03:06;;;;;;;17.73;12.10;;;;;;;19.27;90.24;99049.53;4996380;28;20018;-91
2022/08/24 00:05:31;;;;;;;17.42;12.55;;;;;;;19.19;90.28;99042.25;4980484;28;20485;-92
2022/08/24 00:07:57;;;;;;;16.17;11.85;;;;;;;19.25;90.01;99034.16;4996458;28;20080;-92
2022/08/24 00:10:23;;;;;;;16.23;12.43;;;;;;;19.21;90.11;99023.63;4996367;28;20049;-91
2022/08/24 00:12:49;;;;;;;29.77;12.48;;;;;;;19.26;89.37;99025.25;4996104;28;20034;-91
2022/08/24 00:15:15;;;;;;;19.55;12.00;;;;;;;19.35;89.57;99039.81;4996281;28;20481;-91
2022/08/24 00:17:41;;;;;;;19.67;12.15;;;;;;;19.43;88.64;99048.31;4996182;28;20028;-91
2022/08/24 00:20:10;;;;;;;21.00;11.95;;;;;;;19.42;88.62;99060.88;4996288;28;20485;-90
2022/08/24 00:22:36;;;;;;;23.73;11.95;;;;;;;19.48;88.01;99051.56;4995977;28;20515;-90
2022/08/24 00:25:03;;;;;;;18.98;11.70;;;;;;;19.19;87.86;99031.72;4996181;28;20084;-91
2022/08/24 00:27:29;;;;;;;25.42;12.02;;;;;;;19.22;88.80;99047.09;4996119;28;20068;-92
2022/08/24 00:29:55;;;;;;;18.38;11.80;;;;;;;19.08;88.97;99042.25;4996147;28;20033;-92
2022/08/24 00:32:20;;;;;;;15.65;11.90;;;;;;;19.08;88.60;99026.03;4996063;28;20033;-92
2022/08/24 00:34:46;;;;;;;23.38;12.35;;;;;;;19.07;88.23;99032.13;4995975;28;20026;-91
2022/08/24 00:37:11;;;;;;;15.38;11.20;;;;;;;18.96;88.35;99011.44;4995937;28;20069;-91
2022/08/24 00:39:37;;;;;;;16.27;11.50;;;;;;;19.07;88.15;99023.63;4995980;28;20125;-90
2022/08/24 00:42:03;;;;;;;27.17;13.40;;;;;;;19.08;87.68;99028.88;4995536;28;20132;-91
2022/08/24 00:44:29;;;;;;;19.63;12.35;;;;;;;19.16;87.60;99035.34;4995930;28;20046;-91
2022/08/24 00:47:11;;;;;;;14.93;11.57;;;;;;;19.35;86.31;99047.50;4996024;28;20041;-92
2022/08/24 00:49:44;;;;;;;19.17;11.68;;;;;;;19.30;85.69;99022.38;4995959;28;20548;-91
2022/08/24 00:52:33;;;;;;;17.42;10.98;;;;;;;19.27;85.79;99017.53;4995773;28;20025;-92
2022/08/24 00:55:20;;;;;;;15.90;11.00;;;;;;;19.27;85.69;99020.38;4979379;28;20124;-90
2022/08/24 00:57:50;;;;;;;15.30;10.98;;;;;;;19.26;85.79;99013.91;4995459;28;20033;-91
2022/08/24 01:00:27;;;;;;;14.57;11.48;;;;;;;19.50;85.64;99032.09;4995644;28;20029;-92
2022/08/24 01:02:58;;;;;;;19.75;12.80;;;;;;;19.39;85.58;99022.00;4995722;28;20060;-91
2022/08/24 01:05:24;;;;;;;14.40;12.20;;;;;;;19.60;85.67;99035.34;4995626;28;20036;-92
2022/08/24 01:07:49;;;;;;;22.40;11.75;;;;;;;19.60;85.94;99030.47;4995448;28;20112;-92
2022/08/24 01:10:23;;;;;;;18.52;11.40;;;;;;;19.32;87.19;99017.16;4979384;28;20037;-91
2022/08/24 01:12:53;;;;;;;20.67;12.05;;;;;;;19.19;87.76;99022.41;4995651;28;20026;-91
2022/08/24 01:15:21;;;;;;;18.63;13.18;;;;;;;19.54;87.29;99045.47;5013068;28;20476;-92
2022/08/24 01:20:32;;;;;;;16.63;11.43;;;;;;;19.59;86.76;99042.22;5013080;28;20099;-91
2022/08/24 01:23:04;;;;;;;23.25;12.57;;;;;;;19.69;86.05;99044.25;4995291;28;20480;-92
2022/08/24 01:25:33;;;;;;;20.55;12.63;;;;;;;19.73;86.12;99045.03;4995530;28;20026;-92
2022/08/24 01:28:05;;;;;;;19.40;12.45;;;;;;;19.92;85.70;99065.69;5012535;28;20041;-92
2022/08/24 01:30:32;;;;;;;18.20;12.25;;;;;;;19.74;85.54;99028.84;5012571;28;20034;-91
2022/08/24 01:33:00;;;;;;;16.73;12.35;;;;;;;19.83;85.37;99056.78;4994482;28;20025;-93
2022/08/24 01:35:28;;;;;;;16.90;12.43;;;;;;;19.77;86.09;99062.06;4978976;28;20030;-93
2022/08/24 01:37:55;;;;;;;22.30;12.70;;;;;;;19.86;85.81;99068.13;4979080;28;20041;-91
2022/08/24 01:40:29;;;;;;;18.27;12.52;;;;;;;20.01;85.25;99080.28;4994790;28;20037;-94
2022/08/24 01:42:54;;;;;;;18.38;12.02;;;;;;;19.89;85.24;99057.97;4979272;28;20119;-91
2022/08/24 01:45:21;;;;;;;19.65;12.65;;;;;;;19.82;84.91;99050.28;4995275;28;20447;-91
2022/08/24 01:47:47;;;;;;;20.58;13.55;;;;;;;19.85;85.26;99060.03;4994576;28;20519;-93
2022/08/24 01:50:12;;;;;;;18.00;13.15;;;;;;;20.04;85.05;99076.63;4994770;28;20030;-91
2022/08/24 01:52:42;;;;;;;22.25;12.30;;;;;;;20.09;84.33;99066.06;4994888;28;20029;-93
2022/08/24 01:55:10;;;;;;;20.30;13.30;;;;;;;19.90;85.01;99062.44;4978676;28;20592;-91
2022/08/24 01:57:36;;;;;;;17.20;13.02;;;;;;;19.88;84.97;99064.88;4995021;28;20030;-92
2022/08/24 02:00:04;;;;;;;17.58;12.82;;;;;;;19.96;85.07;99080.69;4994671;28;20040;-92
2022/08/24 02:02:30;;;;;;;18.48;13.02;;;;;;;19.90;83.78;99051.06;4995093;28;20567;-91
2022/08/24 02:04:56;;;;;;;17.13;10.95;;;;;;;20.04;84.08;99059.59;4994689;28;20018;-90
2022/08/24 02:07:22;;;;;;;22.45;12.52;;;;;;;19.77;84.93;99077.03;4994760;28;20098;-92
2022/08/24 02:09:47;;;;;;;23.23;14.00;;;;;;;19.61;85.37;99056.81;4978634;28;20033;-92
2022/08/24 02:12:13;;;;;;;17.52;12.88;;;;;;;19.68;85.32;99047.47;4994722;28;20417;-92
2022/08/24 02:14:40;;;;;;;21.02;13.98;;;;;;;19.63;85.10;99055.19;4994889;28;20469;-92
2022/08/24 02:17:07;;;;;;;17.98;13.65;;;;;;;19.71;85.43;99078.69;4994690;28;20029;-92
2022/08/24 02:19:34;;;;;;;22.60;14.45;;;;;;;19.31;86.18;99041.03;4978822;28;20093;-92
2022/08/24 02:22:00;;;;;;;30.17;15.40;;;;;;;19.47;86.56;99064.13;4994947;28;20022;-91
2022/08/24 02:24:29;;;;;;;27.30;13.07;;;;;;;19.32;86.48;99039.81;4978706;28;20022;-90
2022/08/24 02:26:55;;;;;;;23.88;13.23;;;;;;;19.60;86.06;99060.88;4994788;28;20021;-91
2022/08/24 02:29:21;;;;;;;20.85;12.25;;;;;;;19.61;85.13;99051.97;4994541;28;20408;-91
2022/08/24 02:31:46;;;;;;;21.25;13.18;;;;;;;19.64;84.34;99050.31;4994489;28;20032;-91
2022/08/24 02:34:12;;;;;;;24.33;14.15;;;;;;;19.49;85.50;99044.66;4994334;28;20420;-91
2022/08/24 02:36:39;;;;;;;15.15;12.20;;;;;;;19.62;86.19;99069.78;4994538;28;20477;-92
2022/08/24 02:39:06;;;;;;;19.30;12.43;;;;;;;19.55;86.08;99061.25;4978911;28;20096;-92
2022/08/24 02:41:31;;;;;;;17.45;12.32;;;;;;;19.67;85.58;99063.72;4994319;28;20138;-93
2022/08/24 02:43:57;;;;;;;27.05;14.80;;;;;;;19.81;84.85;99071.38;4996099;28;20104;-93
2022/08/24 02:46:26;;;;;;;16.08;11.68;;;;;;;19.76;84.87;99071.78;4998089;28;20029;-93
2022/08/24 02:48:52;;;;;;;19.92;13.32;;;;;;;19.33;86.39;99064.91;4998045;28;20026;-93
2022/08/24 02:51:30;;;;;;;20.95;13.85;;;;;;;19.42;87.23;99073.00;4997919;28;20080;-92
2022/08/24 02:53:57;;;;;;;22.55;13.30;;;;;;;19.65;86.15;99088.81;4981541;28;20029;-93
2022/08/24 02:56:24;;;;;;;23.38;12.82;;;;;;;19.50;86.20;99057.63;4997672;28;20021;-93
2022/08/24 02:58:50;;;;;;;20.40;14.32;;;;;;;19.48;85.88;99064.91;4998095;28;20018;-92
2022/08/24 03:01:16;;;;;;;20.23;13.02;;;;;;;19.38;86.00;99058.03;4998033;28;20109;-92
2022/08/24 03:03:43;;;;;;;22.00;12.95;;;;;;;19.41;86.17;99064.94;4997773;28;20084;-91
2022/08/24 03:06:09;;;;;;;19.88;13.32;;;;;;;19.43;85.76;99057.66;4981598;28;20037;-92
2022/08/24 03:08:36;;;;;;;22.90;12.93;;;;;;;19.63;86.30;99077.06;4997739;28;20029;-91
2022/08/24 03:11:03;;;;;;;19.30;12.93;;;;;;;19.63;85.69;99072.22;4981557;28;20084;-93
2022/08/24 03:13:29;;;;;;;19.38;12.63;;;;;;;19.74;85.12;99083.53;4997633;28;20479;-91
2022/08/24 03:15:56;;;;;;;23.90;13.48;;;;;;;19.69;84.56;99071.78;4997445;28;20026;-91
2022/08/24 03:18:25;;;;;;;21.95;12.18;;;;;;;19.59;84.72;99045.06;4997618;28;20030;-91
2022/08/24 03:20:52;;;;;;;18.48;12.55;;;;;;;19.68;84.50;99062.50;4983191;28;20032;-91
2022/08/24 03:23:17;;;;;;;12.90;11.32;;;;;;;19.61;84.30;99043.44;4978039;28;20489;-91
2022/08/24 03:25:43;;;;;;;17.90;12.75;;;;;;;20.06;83.34;99102.59;4977848;28;20034;-91
2022/08/24 03:28:10;;;;;;;22.73;14.32;;;;;;;19.91;83.05;99078.25;4977929;28;20030;-91
2022/08/24 03:30:37;;;;;;;58.78;15.85;;;;;;;19.98;82.86;99092.44;4977703;28;20030;-92
2022/08/24 03:33:04;;;;;;;50.20;15.50;;;;;;;20.03;82.55;99091.22;4977794;28;20486;-92
2022/08/24 03:35:30;;;;;;;23.88;13.52;;;;;;;19.83;81.92;99063.25;4977532;28;20022;-93
2022/08/24 03:37:56;;;;;;;35.22;13.65;;;;;;;20.12;82.12;99114.31;4961557;28;20034;-90
2022/08/24 03:40:22;;;;;;;19.27;13.77;;;;;;;20.09;81.91;99095.28;4977601;28;20033;-91
2022/08/24 03:42:48;;;;;;;17.85;12.80;;;;;;;19.92;82.14;99083.53;4989001;28;20436;-91
2022/08/24 03:45:14;;;;;;;22.35;13.50;;;;;;;20.01;82.32;99108.66;4977228;28;20023;-90
2022/08/24 03:47:40;;;;;;;20.98;13.18;;;;;;;19.97;82.97;99124.06;4983870;28;20504;-90
2022/08/24 03:50:09;;;;;;;22.70;12.90;;;;;;;19.64;83.17;99081.53;5014522;28;20017;-91
2022/08/24 03:52:35;;;;;;;20.30;14.32;;;;;;;19.84;83.69;99115.16;4995988;28;20026;-91
2022/08/24 03:55:05;;;;;;;27.52;13.90;;;;;;;19.75;84.02;99122.03;4996108;28;20033;-93
2022/08/24 03:57:31;;;;;;;21.63;13.52;;;;;;;19.54;84.44;99093.69;4996558;28;20136;-91
2022/08/24 03:59:57;;;;;;;30.70;12.95;;;;;;;19.69;83.95;99097.31;4996877;28;20079;-90
2022/08/24 04:02:23;;;;;;;22.30;12.85;;;;;;;19.70;83.90;99091.25;4995384;28;20523;-93
2022/08/24 04:04:49;;;;;;;34.55;14.45;;;;;;;19.65;84.01;99085.97;4996342;28;20018;-90
2022/08/24 04:07:14;;;;;;;23.75;13.48;;;;;;;19.86;84.08;99124.06;4996121;28;20021;-91
2022/08/24 04:09:40;;;;;;;31.17;13.82;;;;;;;19.47;84.63;99069.78;4996096;28;20092;-92
2022/08/24 04:12:06;;;;;;;22.98;13.85;;;;;;;19.92;84.02;99119.59;4996395;28;20040;-91
2022/08/24 04:14:33;;;;;;;33.17;16.30;;;;;;;19.88;84.18;99111.09;4996239;28;20594;-92
2022/08/24 04:16:59;;;;;;;27.42;14.30;;;;;;;19.88;84.41;99104.59;4995613;28;20706;-92
2022/08/24 04:19:25;;;;;;;31.17;15.52;;;;;;;19.84;84.83;99096.09;4996405;28;20117;-92
2022/08/24 04:21:51;;;;;;;23.85;14.73;;;;;;;19.79;84.30;99073.81;4996223;28;20025;-91
2022/08/24 04:24:17;;;;;;;32.75;13.68;;;;;;;20.08;84.33;99109.88;4995074;28;20022;-91
2022/08/24 04:26:43;;;;;;;18.02;13.63;;;;;;;20.06;84.69;99105.41;4994238;28;20080;-93
2022/08/24 04:29:10;;;;;;;21.52;14.23;;;;;;;20.27;84.07;99126.47;4994532;28;20524;-92
2022/08/24 04:31:40;;;;;;;21.38;12.52;;;;;;;20.37;83.20;99135.34;4978536;28;20049;-91
2022/08/24 04:34:07;;;;;;;21.00;12.57;;;;;;;20.20;83.11;99117.94;4994170;28;20029;-92
2022/08/24 04:36:33;;;;;;;18.83;13.48;;;;;;;20.13;83.88;99117.97;4994364;28;20034;-92
2022/08/24 04:39:00;;;;;;;32.55;15.10;;;;;;;20.15;84.39;99135.38;4995129;28;20108;-92
2022/08/24 04:41:25;;;;;;;30.08;12.98;;;;;;;20.20;84.17;99129.31;4995510;28;20053;-92
2022/08/24 04:43:51;;;;;;;18.25;13.50;;;;;;;20.09;83.51;99111.50;4996006;28;20022;-91
2022/08/24 04:46:19;;;;;;;23.92;15.75;;;;;;;20.34;83.68;99129.25;4995730;28;20112;-93
2022/08/24 04:48:47;;;;;;;17.38;13.77;;;;;;;20.33;82.83;99104.94;4995672;28;20432;-92
2022/08/24 04:51:16;;;;;;;26.38;14.57;;;;;;;20.29;81.83;99087.09;4995770;28;20033;-91
2022/08/24 04:53:43;;;;;;;19.88;13.88;;;;;;;20.48;81.57;99124.75;4996137;28;20104;-92
2022/08/24 04:56:12;;;;;;;14.68;12.48;;;;;;;20.70;81.67;99139.69;4995590;28;20030;-92
2022/08/24 04:58:38;;;;;;;22.33;13.40;;;;;;;20.60;81.37;99124.31;4995641;28;20021;-92
2022/08/24 05:01:18;;;;;;;26.95;12.32;;;;;;;20.96;81.04;99129.03;4995560;28;20026;-91
2022/08/24 05:03:49;;;;;;;19.08;12.98;;;;;;;21.11;80.04;99126.13;4995660;28;20026;-93
2022/08/24 05:06:16;;;;;;;24.25;12.77;;;;;;;21.06;79.75;99093.25;4995080;28;20028;-92
2022/08/24 05:08:43;;;;;;;27.77;12.23;;;;;;;21.42;79.34;99134.84;4994397;28;20030;-94
2022/08/24 05:11:08;;;;;;;17.08;11.63;;;;;;;21.01;78.51;99088.00;4993822;28;20021;-94
2022/08/24 05:13:36;;;;;;;18.40;11.20;;;;;;;20.90;78.45;99086.03;4994010;28;20550;-93
2022/08/24 05:16:05;;;;;;;21.65;13.20;;;;;;;21.43;78.07;99140.09;4995190;28;20571;-94
2022/08/24 05:18:32;;;;;;;17.77;12.48;;;;;;;21.29;77.22;99092.66;4995035;28;20037;-93
2022/08/24 05:20:58;;;;;;;19.63;11.95;;;;;;;21.64;76.19;99124.09;4995401;28;20058;-92
2022/08/24 05:23:24;;;;;;;27.52;12.35;;;;;;;21.49;77.47;99139.69;4995109;28;20064;-91
2022/08/24 05:25:49;;;;;;;15.90;11.48;;;;;;;21.12;77.01;99122.03;4979115;28;20034;-93
2022/08/24 05:28:15;;;;;;;17.65;12.20;;;;;;;21.13;78.73;99124.47;4995326;28;20080;-93
2022/08/24 05:30:41;;;;;;;19.67;11.70;;;;;;;21.35;76.99;99141.38;4995257;28;20018;-93
2022/08/24 05:33:06;;;;;;;17.70;10.65;;;;;;;21.46;76.42;99135.63;4995455;28;20021;-93
2022/08/24 05:35:37;;;;;;;16.67;10.88;;;;;;;21.20;76.60;99094.38;4994391;28;20026;-93
2022/08/24 05:38:03;;;;;;;13.60;10.57;;;;;;;21.37;76.07;99127.56;4994952;28;20033;-93
2022/08/24 05:40:29;;;;;;;15.35;11.05;;;;;;;21.58;76.20;99126.59;4995066;28;20029;-92
2022/08/24 05:42:54;;;;;;;14.63;11.00;;;;;;;21.72;75.86;99139.94;4994985;28;20428;-93
2022/08/24 05:45:20;;;;;;;20.05;12.80;;;;;;;21.78;75.48;99133.78;4995017;28;20029;-92
2022/08/24 05:47:45;;;;;;;17.08;12.80;;;;;;;21.79;75.95;99130.53;4994379;28;20022;-94
2022/08/24 05:50:11;;;;;;;16.65;11.77;;;;;;;21.85;75.19;99145.91;4994607;28;20026;-94
2022/08/24 05:52:37;;;;;;;20.92;12.00;;;;;;;21.88;74.45;99136.50;4994813;28;20014;-92
2022/08/24 05:55:03;;;;;;;20.75;12.48;;;;;;;21.85;74.45;99140.22;4994903;28;20030;-92
2022/08/24 05:57:33;;;;;;;17.45;11.55;;;;;;;21.69;75.33;99140.75;4994619;28;20053;-92
2022/08/24 05:59:59;;;;;;;19.67;11.77;;;;;;;21.46;75.42;99127.88;4994815;28;20022;-92
2022/08/24 06:02:25;;;;;;;16.98;11.65;;;;;;;21.29;76.48;99137.38;4994867;28;20033;-93
2022/08/24 06:04:51;;;;;;;19.95;11.82;;;;;;;21.37;76.61;99138.13;4995052;28;20026;-93
2022/08/24 06:07:17;;;;;;;16.02;10.57;;;;;;;21.51;76.09;99145.75;4994656;28;20065;-93
2022/08/24 06:09:43;;;;;;;19.63;11.40;;;;;;;21.46;75.85;99115.72;4994800;28;20026;-93
2022/08/24 06:12:10;;;;;;;22.73;11.95;;;;;;;21.66;77.17;99144.44;4994761;28;20084;-93
2022/08/24 06:14:36;;;;;;;16.42;12.55;;;;;;;21.64;76.63;99146.88;4978826;28;20026;-94
2022/08/24 06:17:07;;;;;;;18.35;12.48;;;;;;;21.65;77.79;99130.59;4994745;28;20022;-92
2022/08/24 06:19:34;;;;;;;18.63;12.63;;;;;;;21.86;76.62;99141.03;4997681;28;20037;-93
2022/08/24 06:22:00;;;;;;;17.20;11.07;;;;;;;21.82;75.29;99129.66;4982358;28;20037;-91
2022/08/24 06:27:22;;;;;;;17.45;10.82;;;;;;;21.86;75.41;99146.72;4974825;28;20101;-95
2022/08/24 06:29:53;;;;;;;18.70;12.23;;;;;;;21.93;74.90;99146.63;4998562;28;20034;-94
2022/08/24 06:32:20;;;;;;;15.30;11.40;;;;;;;21.95;74.25;99155.56;4998474;28;20036;-94
2022/08/24 06:34:45;;;;;;;17.38;12.07;;;;;;;21.77;73.77;99141.50;4998091;28;20026;-91
2022/08/24 06:37:12;;;;;;;19.25;12.60;;;;;;;21.78;75.06;99137.44;4998301;28;20037;-93
2022/08/24 06:39:38;;;;;;;18.40;12.52;;;;;;;22.00;74.63;99157.97;4982002;28;20423;-92
2022/08/24 06:42:04;;;;;;;15.93;12.60;;;;;;;21.99;73.37;99150.66;4998143;28;20137;-91
2022/08/24 06:44:30;;;;;;;31.55;13.38;;;;;;;22.02;74.47;99158.34;4998300;28;20112;-92
2022/08/24 06:46:56;;;;;;;20.45;11.75;;;;;;;22.03;73.56;99139.25;4982129;28;20045;-92
2022/08/24 06:49:22;;;;;;;18.48;13.18;;;;;;;22.11;73.18;99135.06;4998312;28;20025;-91
2022/08/24 06:51:48;;;;;;;17.58;12.20;;;;;;;22.16;72.83;99119.56;4998117;28;20029;-92
2022/08/24 06:54:13;;;;;;;18.58;13.25;;;;;;;22.20;72.87;99136.63;4997891;28;20104;-92
2022/08/24 06:56:39;;;;;;;17.30;12.70;;;;;;;22.25;72.31;99156.91;4998127;28;20068;-91
2022/08/24 06:59:05;;;;;;;13.68;11.68;;;;;;;22.12;73.77;99135.91;4997839;28;20461;-91
2022/08/24 07:01:30;;;;;;;22.88;13.77;;;;;;;22.20;74.05;99133.78;4997871;28;20038;-91
2022/08/24 07:03:57;;;;;;;16.70;11.40;;;;;;;22.23;74.10;99136.59;4997932;28;20033;-92
2022/08/24 07:06:23;;;;;;;17.27;11.50;;;;;;;22.26;73.48;99129.22;4998026;28;20033;-91
2022/08/24 07:08:50;;;;;;;18.70;11.25;;;;;;;22.44;72.96;99141.25;4981422;28;20034;-92
2022/08/24 07:11:17;;;;;;;21.20;12.02;;;;;;;22.26;71.91;99127.19;4997744;28;20030;-91
2022/08/24 07:13:46;;;;;;;19.13;11.23;;;;;;;22.42;70.09;99143.72;4997568;28;20030;-92
2022/08/24 07:16:12;;;;;;;12.77;9.48;;;;;;;22.46;69.77;99145.69;4981656;28;20061;-91
2022/08/24 07:18:37;;;;;;;14.52;10.00;;;;;;;22.32;70.30;99109.63;4997531;28;20131;-91
2022/08/24 07:21:03;;;;;;;20.88;10.63;;;;;;;22.52;71.20;99124.91;4997576;28;20120;-92
2022/08/24 07:23:29;;;;;;;15.88;9.88;;;;;;;22.59;69.22;99126.84;4981074;28;20057;-93
2022/08/24 07:25:55;;;;;;;22.08;10.25;;;;;;;22.58;68.25;99116.69;4997419;28;20481;-93
2022/08/24 07:28:21;;;;;;;54.78;13.25;;;;;;;22.89;67.84;99141.53;4997386;28;20026;-92
2022/08/24 07:30:47;;;;;;;21.00;9.93;;;;;;;22.70;67.24;99092.53;4996348;28;20477;-92
2022/08/24 07:33:12;;;;;;;15.07;9.07;;;;;;;23.01;67.64;99115.31;4997301;28;20071;-93
2022/08/24 07:35:38;;;;;;;14.32;9.98;;;;;;;22.89;65.91;99104.47;4997199;28;20033;-93
2022/08/24 07:38:05;;;;;;;11.55;8.98;;;;;;;23.20;66.40;99133.75;4997218;28;20029;-93
2022/08/24 07:40:32;;;;;;;11.00;9.38;;;;;;;23.20;65.64;99144.38;4997109;28;20025;-92
2022/08/24 07:42:58;;;;;;;13.30;9.25;;;;;;;23.35;65.58;99137.25;4996961;28;20152;-92
2022/08/24 07:45:25;;;;;;;9.77;8.77;;;;;;;23.41;65.91;99135.53;4996858;28;20026;-91
2022/08/24 07:47:51;;;;;;;17.95;9.70;;;;;;;23.39;66.12;99114.38;4981209;28;20033;-92
2022/08/24 07:50:18;;;;;;;12.70;8.88;;;;;;;23.38;65.78;99105.00;4992966;28;20037;-91
2022/08/24 07:52:44;;;;;;;13.35;9.48;;;;;;;23.56;64.92;99121.03;4995286;28;20034;-90
2022/08/24 07:55:11;;;;;;;12.55;10.18;;;;;;;23.67;64.78;99130.22;4996133;28;20493;-91
2022/08/24 07:57:38;;;;;;;13.27;9.35;;;;;;;23.76;65.68;99120.28;5013556;28;20572;-92
2022/08/24 08:00:06;;;;;;;15.23;8.90;;;;;;;23.94;64.33;99120.78;4996283;28;20034;-92
2022/08/24 08:02:32;;;;;;;18.42;10.43;;;;;;;24.15;63.21;99124.53;4995867;28;20033;-91
2022/08/24 08:04:58;;;;;;;11.15;8.60;;;;;;;24.44;62.92;99140.31;4995841;28;20108;-91
2022/08/24 08:07:24;;;;;;;15.70;8.57;;;;;;;24.48;61.37;99121.81;4996660;28;20557;-89
2022/08/24 08:09:51;;;;;;;11.57;7.13;;;;;;;24.61;60.56;99124.84;4996908;28;20034;-90
2022/08/24 08:12:18;;;;;;;11.45;7.88;;;;;;;24.77;59.30;99131.88;4995579;28;20040;-90
2022/08/24 08:14:43;;;;;;;14.25;7.10;;;;;;;24.88;59.01;99137.41;4996394;28;20045;-90
2022/08/24 08:17:10;;;;;;;12.60;7.72;;;;;;;25.06;59.79;99154.16;4989852;28;20030;-90
2022/08/24 08:19:35;;;;;;;9.82;8.07;;;;;;;24.98;59.02;99146.97;4985821;28;20420;-91
2022/08/24 08:24:45;;;;;;;14.60;7.47;;;;;;;24.90;58.77;99149.19;5014252;28;20080;-90
2022/08/24 08:27:13;;;;;;;16.30;7.88;;;;;;;24.77;59.04;99131.88;4984233;28;20030;-90
2022/08/24 08:29:39;;;;;;;11.13;7.82;;;;;;;24.79;58.97;99138.78;4976642;28;20022;-91
2022/08/24 08:32:06;;;;;;;10.82;8.00;;;;;;;24.61;58.81;99119.13;4987986;28;20029;-90
2022/08/24 08:34:32;;;;;;;13.68;8.82;;;;;;;24.86;58.70;99137.00;4995914;28;20104;-90
2022/08/24 08:36:59;;;;;;;10.23;7.03;;;;;;;24.74;56.68;99127.03;4995948;28;20026;-90
2022/08/24 08:39:26;;;;;;;16.08;8.15;;;;;;;24.81;58.11;99141.22;4996984;28;20040;-89
2022/08/24 08:42:19;;;;;;;8.35;7.30;;;;;;;24.75;57.63;99143.75;4991331;28;20504;-91
2022/08/24 08:45:08;;;;;;;8.68;6.78;;;;;;;24.64;59.05;99123.16;4996438;28;20113;-90
2022/08/24 08:47:49;;;;;;;9.95;7.32;;;;;;;24.87;58.39;99139.44;4976690;28;20036;-90
2022/08/24 08:50:30;;;;;;;11.38;8.52;;;;;;;24.92;58.80;99147.50;4977172;28;20061;-91
2022/08/24 08:53:04;;;;;;;20.73;8.98;;;;;;;25.06;58.04;99145.59;4976646;28;20026;-91
2022/08/24 08:55:55;;;;;;;10.02;6.97;;;;;;;25.04;56.42;99134.56;4976624;28;20031;-91
2022/08/24 08:58:54;;;;;;;19.10;8.65;;;;;;;25.29;56.89;99147.50;4976687;28;20492;-91
2022/08/24 09:01:42;;;;;;;9.90;6.90;;;;;;;25.15;54.52;99150.69;4976869;28;20026;-90
2022/08/24 09:04:37;;;;;;;9.60;7.22;;;;;;;25.50;55.30;99139.69;4976569;28;20093;-91
2022/08/24 09:07:27;;;;;;;12.50;7.00;;;;;;;25.60;53.45;99132.91;4986098;28;20570;-91
2022/08/24 09:10:13;;;;;;;12.00;6.70;;;;;;;25.69;54.49;99120.00;4995537;28;20036;-88
2022/08/24 09:13:03;;;;;;;11.52;7.00;;;;;;;25.75;54.15;99138.28;4995557;28;20029;-88
2022/08/24 09:16:02;;;;;;;14.10;7.60;;;;;;;25.91;53.96;99134.59;4995870;28;20025;-91
2022/08/24 09:18:51;;;;;;;8.93;6.82;;;;;;;25.85;53.33;99142.91;4995614;28;20512;-90
2022/08/24 09:21:51;;;;;;;11.77;5.97;;;;;;;25.84;51.89;99118.41;4995728;28;20021;-90
2022/08/24 09:24:23;;;;;;;12.48;6.65;;;;;;;26.26;52.75;99136.97;4990110;28;20485;-89
2022/08/24 09:27:20;;;;;;;9.88;6.43;;;;;;;26.34;52.07;99130.56;4995017;28;20033;-88
2022/08/24 09:30:18;;;;;;;13.77;7.50;;;;;;;26.29;51.68;99124.59;4994353;28;20026;-88
2022/08/24 09:33:03;;;;;;;12.02;7.57;;;;;;;26.32;51.97;99117.97;4988772;28;20428;-87
2022/08/24 09:35:47;;;;;;;13.23;7.28;;;;;;;26.44;52.27;99122.97;4974547;28;20030;-87
2022/08/24 09:39:04;;;;;;;12.98;8.15;;;;;;;26.86;55.84;99124.19;4974865;28;20424;-87
2022/08/24 09:41:51;;;;;;;28.25;7.93;;;;;;;27.08;54.43;99123.59;4942680;28;20046;-85
2022/08/24 09:44:53;;;;;;;9.88;7.80;;;;;;;27.34;54.26;99121.53;4982761;28;20027;-87
2022/08/24 09:48:02;;;;;;;8.48;7.00;;;;;;;27.04;49.88;99118.75;4988611;28;20045;-86
2022/08/24 09:50:58;;;;;;;11.00;7.05;;;;;;;27.00;49.76;99103.72;4943875;28;20509;-87
2022/08/24 09:54:14;;;;;;;10.60;7.22;;;;;;;27.29;50.84;99099.13;4987273;28;20021;-87
2022/08/24 09:57:16;;;;;;;16.25;8.27;;;;;;;27.39;50.80;99091.41;4976852;28;20125;-87
2022/08/24 10:00:17;;;;;;;10.95;7.25;;;;;;;27.33;48.32;99089.13;4998576;28;20026;-88
2022/08/24 10:02:43;;;;;;;11.40;8.30;;;;;;;27.28;48.90;99091.78;5012523;28;20109;-88
2022/08/24 10:05:25;;;;;;;9.15;7.00;;;;;;;27.02;48.25;99065.97;4998555;28;20038;-88
2022/08/24 10:08:26;;;;;;;11.27;6.95;;;;;;;27.11;49.49;99079.63;4995485;28;20105;-87
2022/08/24 10:11:06;;;;;;;12.68;6.97;;;;;;;27.04;49.09;99064.25;4986253;28;20121;-87
2022/08/24 10:13:41;;;;;;;11.23;5.97;;;;;;;27.25;46.49;99061.13;4995650;28;20211;-88
2022/08/24 10:16:25;;;;;;;8.90;6.68;;;;;;;27.49;47.04;99073.03;4978566;28;20080;-87
2022/08/24 10:19:12;;;;;;;13.55;8.95;;;;;;;27.44;46.67;99071.53;4994719;28;20116;-86
2022/08/24 10:22:01;;;;;;;16.98;7.45;;;;;;;27.28;46.36;99075.38;4978174;28;20034;-86
2022/08/24 10:24:37;;;;;;;12.63;6.97;;;;;;;27.52;47.61;99072.13;4994842;28;20062;-86
2022/08/24 10:27:48;;;;;;;24.00;8.57;;;;;;;27.94;47.08;99058.81;4994316;28;20030;-87
2022/08/24 10:30:45;;;;;;;9.98;6.22;;;;;;;28.22;46.41;99033.22;4927436;28;20045;-87
2022/08/24 10:33:47;;;;;;;15.25;5.95;;;;;;;28.53;45.35;99032.47;4988493;28;20034;-87
2022/08/24 10:36:18;;;;;;;10.48;5.40;;;;;;;28.61;44.90;99045.31;4944539;28;20070;-87
2022/08/24 10:42:00;;;;;;;21.08;6.57;;;;;;;28.29;43.98;99030.88;5015212;28;20115;-86
2022/08/24 10:44:34;;;;;;;19.70;6.93;;;;;;;28.65;45.08;99048.03;4997394;28;20583;-87
2022/08/24 10:47:27;;;;;;;18.17;6.90;;;;;;;28.06;43.65;99029.25;4997204;28;20022;-88
2022/08/24 10:50:27;;;;;;;12.40;6.70;;;;;;;28.15;44.62;99046.56;4958528;28;20073;-88
2022/08/24 10:53:11;;;;;;;;;;;;;;;28.15;43.67;99040.81;4978615;28;20500;-88
2022/08/24 10:55:37;;;;;;;18.15;6.38;;;;;;;28.24;43.77;99024.94;4984659;28;20014;-88
2022/08/24 10:58:25;;;;;;;15.40;6.28;;;;;;;28.15;42.63;99023.56;4997378;28;20504;-89
2022/08/24 11:00:51;;;;;;;13.60;5.72;;;;;;;28.33;44.48;99019.22;5014865;28;20053;-88
2022/08/24 11:03:21;;;;;;;13.45;5.55;;;;;;;28.37;43.07;99037.16;5014861;28;20026;-88
2022/08/24 11:05:46;;;;;;;;;;;;;;;28.54;44.51;99034.06;4997760;28;20500;-88
2022/08/24 11:08:25;;;;;;;13.05;5.75;;;;;;;28.79;43.99;99020.78;4997087;28;19920;-87
2022/08/24 11:11:11;;;;;;;17.35;6.40;;;;;;;29.00;43.89;99033.53;4997237;28;20048;-88
2022/08/24 11:14:14;;;;;;;11.38;6.00;;;;;;;29.26;43.82;99025.47;4997044;28;20026;-88
2022/08/24 11:16:43;;;;;;;13.60;6.03;;;;;;;29.32;43.81;99024.81;4993276;28;20523;-88
2022/08/24 11:19:28;;;;;;;12.17;6.37;;;;;;;29.33;42.67;99035.88;4996536;28;20083;-88
2022/08/24 11:21:56;;;;;;;11.20;5.35;;;;;;;29.41;42.43;99010.44;4993332;28;20029;-89
2022/08/24 11:24:25;;;;;;;17.83;5.75;;;;;;;29.52;41.81;99031.00;4991334;28;20034;-88
2022/08/24 11:26:53;;;;;;;15.15;6.28;;;;;;;29.58;41.56;99027.50;4997140;28;20029;-88
2022/08/24 11:29:18;;;;;;;14.68;5.80;;;;;;;29.50;42.25;99024.91;4997020;28;20034;-88
2022/08/24 11:31:49;;;;;;;10.77;5.75;;;;;;;29.42;41.78;99020.69;4997349;28;20096;-90
2022/08/24 11:34:30;;;;;;;8.98;5.57;;;;;;;29.29;42.00;99029.47;5015090;28;20385;-89
2022/08/24 11:36:56;;;;;;;9.30;5.97;;;;;;;29.27;42.53;99017.63;4996981;28;20061;-90
2022/08/24 11:39:31;;;;;;;12.65;7.07;;;;;;;29.53;42.21;99028.91;4993214;28;20031;-89
2022/08/24 11:42:25;;;;;;;18.38;5.78;;;;;;;29.52;41.57;99035.97;4997205;28;20077;-89
2022/08/24 11:44:58;;;;;;;15.88;6.40;;;;;;;29.75;41.75;99020.13;4986928;28;20034;-88
2022/08/24 11:47:41;;;;;;;16.95;5.50;;;;;;;29.33;42.17;99020.69;4996525;28;20428;-91
2022/08/24 11:50:32;;;;;;;25.63;5.88;;;;;;;29.32;42.09;99010.44;4996838;28;20029;-90
2022/08/24 11:53:23;;;;;;;14.00;4.97;;;;;;;29.56;41.22;99005.72;5000956;28;20073;-90